Time;durP1;ratioP1;P1;durP2;ratioP2;P2;SDS_P1;SDS_P2;PMS_P1;PMS_P2;Temp;Humidity;BMP_temperature;BMP_pressure;BME280_temperature;BME280_humidity;BME280_pressure;Samples;Min_cycle;Max_cycle;Signal;HPM_P1;HPM_P2
2022/04/27 00:00:18;;;;;;;7.10;6.50;;;8.50;99.90;;;;;;5072654;28;20440;-43
2022/04/27 00:02:45;;;;;;;8.23;7.40;;;8.60;99.90;;;;;;5072398;28;20468;-43
2022/04/27 00:05:12;;;;;;;7.00;6.50;;;8.60;99.90;;;;;;5071937;28;21020;-44
2022/04/27 00:07:39;;;;;;;8.43;6.97;;;8.60;99.90;;;;;;5072481;28;20498;-44
2022/04/27 00:10:07;;;;;;;6.60;6.10;;;8.50;99.90;;;;;;5072500;28;20449;-43
2022/04/27 00:12:35;;;;;;;7.00;6.40;;;8.30;99.90;;;;;;5072147;28;20441;-44
2022/04/27 00:15:04;;;;;;;6.97;6.37;;;8.10;99.90;;;;;;5072001;28;20452;-45
2022/04/27 00:17:31;;;;;;;7.23;6.63;;;8.10;99.90;;;;;;5072574;28;20468;-44
2022/04/27 00:19:58;;;;;;;6.47;5.90;;;8.20;99.90;;;;;;5072305;28;20794;-43
2022/04/27 00:22:25;;;;;;;6.43;5.93;;;8.40;99.90;;;;;;5072122;28;20453;-43
2022/04/27 00:24:52;;;;;;;7.50;6.90;;;8.50;99.90;;;;;;5071971;28;20469;-46
2022/04/27 00:27:19;;;;;;;6.67;6.17;;;8.60;99.90;;;;;;5072815;28;20483;-46
2022/04/27 00:29:45;;;;;;;8.30;7.53;;;8.40;99.90;;;;;;5072242;28;20805;-46
2022/04/27 00:32:14;;;;;;;7.73;7.07;;;8.10;99.90;;;;;;5072249;28;20503;-46
2022/04/27 00:34:41;;;;;;;7.70;7.00;;;8.00;99.90;;;;;;5071944;28;20531;-46
2022/04/27 00:37:08;;;;;;;8.00;7.17;;;7.80;99.90;;;;;;5072231;28;20536;-46
2022/04/27 00:39:34;;;;;;;8.10;7.40;;;7.90;99.90;;;;;;5071085;28;20467;-47
2022/04/27 00:42:13;;;;;;;8.50;7.73;;;8.10;99.90;;;;;;5072209;28;20512;-46
2022/04/27 00:44:43;;;;;;;9.00;8.10;;;8.20;99.90;;;;;;5071536;28;20440;-46
2022/04/27 00:47:10;;;;;;;7.93;7.33;;;8.30;99.90;;;;;;5071958;28;20466;-46
2022/04/27 00:49:42;;;;;;;9.00;8.10;;;8.40;99.90;;;;;;5072215;28;20444;-46
2022/04/27 00:52:12;;;;;;;8.63;7.83;;;8.40;99.90;;;;;;5071700;28;20531;-46
2022/04/27 00:54:40;;;;;;;7.90;7.20;;;8.40;99.90;;;;;;5071507;28;20455;-47
2022/04/27 00:57:07;;;;;;;8.07;7.43;;;8.20;99.90;;;;;;5071893;28;20437;-46
2022/04/27 00:59:35;;;;;;;8.40;7.60;;;8.00;99.90;;;;;;5071659;28;20520;-46
2022/04/27 01:02:02;;;;;;;7.47;6.83;;;8.10;99.90;;;;;;5071447;28;20468;-46
2022/04/27 01:04:31;;;;;;;8.67;7.90;;;8.20;99.90;;;;;;5070992;28;20440;-46
2022/04/27 01:06:59;;;;;;;7.93;7.23;;;8.30;99.90;;;;;;5071422;28;20512;-46
2022/04/27 01:09:27;;;;;;;8.30;7.50;;;8.20;99.90;;;;;;5071820;28;20992;-46
2022/04/27 01:11:55;;;;;;;8.27;7.37;;;8.30;99.90;;;;;;5071365;28;20444;-46
2022/04/27 01:14:22;;;;;;;8.90;8.10;;;8.50;99.90;;;;;;5070927;28;20440;-46
2022/04/27 01:16:53;;;;;;;7.13;6.53;;;8.60;99.90;;;;;;5071097;28;20483;-46
2022/04/27 01:19:22;;;;;;;7.97;7.27;;;8.80;99.90;;;;;;5071082;28;20936;-46
2022/04/27 01:21:50;;;;;;;9.00;8.20;;;8.90;99.90;;;;;;5071291;28;20448;-46
2022/04/27 01:24:20;;;;;;;7.47;6.77;;;8.90;99.90;;;;;;5070878;28;20445;-46
2022/04/27 01:26:47;;;;;;;8.30;7.53;;;8.90;99.90;;;;;;5071588;28;20536;-46
2022/04/27 01:29:15;;;;;;;8.10;7.30;;;9.00;99.90;;;;;;5070924;28;20443;-46
2022/04/27 01:31:43;;;;;;;8.50;7.70;;;9.00;99.90;;;;;;5071198;28;20501;-46
2022/04/27 01:34:10;;;;;;;7.67;6.87;;;8.80;99.90;;;;;;5071112;28;20541;-46
2022/04/27 01:36:37;;;;;;;6.67;6.17;;;8.60;99.90;;;;;;5070911;28;20456;-46
2022/04/27 01:39:06;;;;;;;7.07;6.37;;;8.50;99.90;;;;;;5071433;28;20480;-46
2022/04/27 01:41:33;;;;;;;9.87;8.87;;;8.20;99.90;;;;;;5070904;28;20472;-46
2022/04/27 01:44:00;;;;;;;8.30;7.50;;;8.10;99.90;;;;;;5070834;28;20436;-46
2022/04/27 01:46:28;;;;;;;10.23;9.23;;;8.00;99.90;;;;;;5070619;28;21036;-46
2022/04/27 01:48:55;;;;;;;8.70;7.90;;;8.00;99.90;;;;;;5070808;28;20505;-47
2022/04/27 01:54:14;;;;;;;8.13;7.33;;;8.00;99.90;;;;;;5070670;28;20884;-46
2022/04/27 01:54:16;;;;;;;9.30;8.40;;;8.10;99.90;;;;;;5070551;28;20439;-46
2022/04/27 01:56:43;;;;;;;9.03;8.07;;;8.20;99.90;;;;;;5070594;28;20463;-46
2022/04/27 01:59:10;;;;;;;8.67;7.87;;;8.40;99.90;;;;;;5070979;28;20535;-47
2022/04/27 02:01:37;;;;;;;8.67;7.90;;;8.60;99.90;;;;;;5070586;28;20472;-46
2022/04/27 02:04:04;;;;;;;8.63;7.50;;;8.70;99.90;;;;;;5070213;28;20944;-46
2022/04/27 02:06:31;;;;;;;8.80;8.00;;;8.30;99.90;;;;;;5070691;28;20507;-46
2022/04/27 02:08:58;;;;;;;7.77;7.07;;;7.90;99.90;;;;;;5071246;28;20487;-46
2022/04/27 02:11:27;;;;;;;7.33;6.77;;;7.90;99.90;;;;;;5070718;28;20436;-46
2022/04/27 02:13:55;;;;;;;8.47;7.63;;;7.70;99.90;;;;;;5070557;28;20498;-46
2022/04/27 02:16:22;;;;;;;8.40;7.70;;;7.80;99.90;;;;;;5070283;28;20467;-46
2022/04/27 02:18:49;;;;;;;12.87;8.13;;;7.70;99.90;;;;;;5070663;28;20964;-46
2022/04/27 02:21:16;;;;;;;7.80;7.17;;;7.70;99.90;;;;;;5070815;28;20567;-46
2022/04/27 02:23:44;;;;;;;8.00;7.30;;;7.60;99.90;;;;;;5070496;28;20864;-46
2022/04/27 02:26:11;;;;;;;7.80;7.10;;;7.50;99.90;;;;;;5070446;28;20969;-46
2022/04/27 02:28:40;;;;;;;8.13;7.33;;;7.40;99.90;;;;;;5070618;28;20480;-46
2022/04/27 02:31:06;;;;;;;9.67;8.67;;;7.30;99.90;;;;;;5070522;28;20487;-46
2022/04/27 02:33:33;;;;;;;8.80;7.90;;;7.20;99.90;;;;;;5070055;28;20452;-46
2022/04/27 02:36:00;;;;;;;9.23;8.33;;;7.10;99.90;;;;;;5070665;28;20523;-46
2022/04/27 02:38:28;;;;;;;10.63;9.40;;;7.20;99.90;;;;;;5070572;28;20436;-46
2022/04/27 02:40:55;;;;;;;10.57;9.60;;;7.20;99.90;;;;;;5070213;28;20445;-46
2022/04/27 02:43:23;;;;;;;10.10;9.10;;;7.20;99.90;;;;;;5070157;28;20441;-46
2022/04/27 02:45:52;;;;;;;9.60;8.70;;;7.20;99.90;;;;;;5070313;28;20508;-46
2022/04/27 02:48:18;;;;;;;10.17;9.23;;;7.20;99.90;;;;;;5070517;28;20455;-46
2022/04/27 02:53:30;;;;;;;10.70;9.17;;;7.40;99.90;;;;;;5070218;28;20497;-46
2022/04/27 02:55:57;;;;;;;10.30;8.50;;;7.50;99.90;;;;;;5070021;28;20502;-46
2022/04/27 02:58:24;;;;;;;10.70;9.60;;;7.70;99.90;;;;;;5070202;28;20456;-46
2022/04/27 03:00:53;;;;;;;12.80;11.57;;;7.90;99.90;;;;;;5070181;28;20445;-46
2022/04/27 03:03:20;;;;;;;10.27;9.10;;;8.10;99.90;;;;;;5071660;28;20447;-46
2022/04/27 03:05:46;;;;;;;10.57;9.53;;;8.10;99.90;;;;;;5073128;28;20483;-46
2022/04/27 03:08:14;;;;;;;10.10;9.20;;;7.90;99.90;;;;;;5073904;28;20527;-46
2022/04/27 03:10:41;;;;;;;13.80;12.23;;;8.10;99.90;;;;;;5073769;28;20541;-46
2022/04/27 03:13:08;;;;;;;17.53;15.73;;;8.10;99.90;;;;;;5073828;28;20445;-46
2022/04/27 03:15:35;;;;;;;19.90;16.20;;;8.10;99.90;;;;;;5073276;28;20461;-46
2022/04/27 03:18:19;;;;;;;16.67;14.83;;;8.00;99.90;;;;;;5073697;28;21006;-46
2022/04/27 03:20:47;;;;;;;16.03;14.33;;;7.60;99.90;;;;;;5073494;28;20444;-46
2022/04/27 03:23:14;;;;;;;14.57;13.10;;;7.50;99.90;;;;;;5073244;28;21018;-46
2022/04/27 03:25:41;;;;;;;14.17;12.60;;;7.10;99.90;;;;;;5073561;28;20466;-46
2022/04/27 03:28:08;;;;;;;15.07;12.03;;;6.90;99.90;;;;;;5073625;28;20533;-47
2022/04/27 03:30:35;;;;;;;16.77;14.10;;;6.80;99.90;;;;;;5073156;28;20469;-47
2022/04/27 03:33:03;;;;;;;16.37;13.60;;;6.70;99.90;;;;;;5073628;28;20498;-47
2022/04/27 03:35:30;;;;;;;16.10;13.30;;;6.80;99.90;;;;;;5073391;28;20460;-47
2022/04/27 03:37:58;;;;;;;17.83;14.20;;;6.80;99.90;;;;;;5073748;28;20493;-47
2022/04/27 03:40:25;;;;;;;15.97;13.20;;;6.70;99.90;;;;;;5073181;28;20817;-47
2022/04/27 03:42:52;;;;;;;18.20;13.20;;;6.60;99.90;;;;;;5073273;28;20971;-47
2022/04/27 03:45:20;;;;;;;17.40;13.80;;;6.70;99.90;;;;;;5073226;28;20456;-48
2022/04/27 03:47:47;;;;;;;16.87;14.83;;;6.60;99.90;;;;;;5073164;28;21005;-47
2022/04/27 03:50:16;;;;;;;19.40;13.10;;;6.50;99.90;;;;;;5073093;28;20444;-47
2022/04/27 03:52:43;;;;;;;17.37;13.57;;;6.50;99.90;;;;;;5072962;28;20812;-48
2022/04/27 03:55:11;;;;;;;18.50;14.63;;;6.40;99.90;;;;;;5073097;28;20480;-48
2022/04/27 03:57:38;;;;;;;19.53;15.67;;;6.40;99.90;;;;;;5073282;28;20883;-49
2022/04/27 04:00:07;;;;;;;17.47;14.00;;;6.40;99.90;;;;;;5073180;28;20449;-49
2022/04/27 04:02:36;;;;;;;20.00;15.93;;;6.40;99.90;;;;;;5072730;28;20995;-48
2022/04/27 04:05:04;;;;;;;18.83;16.10;;;6.40;99.90;;;;;;5073228;28;20495;-49
2022/04/27 04:07:32;;;;;;;18.53;15.30;;;6.50;99.90;;;;;;5072967;28;21035;-49
2022/04/27 04:09:59;;;;;;;20.37;15.77;;;6.60;99.90;;;;;;5073317;28;20537;-48
2022/04/27 04:12:26;;;;;;;22.10;17.77;;;6.60;99.90;;;;;;5072538;28;20440;-49
2022/04/27 04:14:53;;;;;;;19.90;15.83;;;6.60;99.90;;;;;;5072188;28;20476;-48
2022/04/27 04:17:20;;;;;;;17.47;14.63;;;6.70;99.90;;;;;;5072627;28;20460;-50
2022/04/27 04:19:48;;;;;;;19.53;15.13;;;6.70;99.90;;;;;;5072648;28;20527;-48
2022/04/27 04:22:15;;;;;;;17.67;14.63;;;6.70;99.90;;;;;;5072307;28;20477;-48
2022/04/27 04:28:29;;;;;;;16.13;14.00;;;6.60;99.90;;;;;;5072582;28;20444;-48
2022/04/27 04:30:16;;;;;;;18.00;13.90;;;6.40;99.90;;;;;;5072520;28;20944;-48
2022/04/27 04:32:43;;;;;;;16.90;14.00;;;6.40;99.90;;;;;;5072173;28;20476;-49
2022/04/27 04:35:10;;;;;;;18.43;13.67;;;6.40;99.90;;;;;;5072224;28;20464;-49
2022/04/27 04:37:37;;;;;;;15.00;12.33;;;6.40;99.90;;;;;;5072430;28;20436;-49
2022/04/27 04:40:06;;;;;;;14.17;12.33;;;6.50;99.90;;;;;;5072383;28;20455;-48
2022/04/27 04:42:35;;;;;;;14.03;11.80;;;6.50;99.90;;;;;;5071990;28;20459;-48
2022/04/27 04:45:01;;;;;;;15.27;12.20;;;6.50;99.90;;;;;;5071962;28;20461;-48
2022/04/27 04:47:28;;;;;;;16.23;12.43;;;6.60;99.90;;;;;;5071866;28;20508;-48
2022/04/27 04:49:55;;;;;;;12.17;10.30;;;6.70;99.90;;;;;;5071933;28;20490;-49
2022/04/27 04:52:22;;;;;;;14.47;12.40;;;6.70;99.90;;;;;;5072045;28;20441;-48
2022/04/27 04:54:49;;;;;;;15.93;12.27;;;6.60;99.90;;;;;;5071853;28;20509;-49
2022/04/27 04:57:17;;;;;;;13.87;10.73;;;6.70;99.90;;;;;;5071915;28;20520;-49
2022/04/27 04:59:44;;;;;;;15.17;11.87;;;6.90;99.90;;;;;;5071728;28;20877;-49
2022/04/27 05:02:11;;;;;;;21.90;16.57;;;7.10;99.90;;;;;;5070758;28;20527;-48
2022/04/27 05:04:38;;;;;;;18.47;14.47;;;7.00;99.90;;;;;;5068836;28;20436;-49
2022/04/27 05:07:05;;;;;;;18.87;15.90;;;7.10;99.90;;;;;;5051679;28;20477;-49
2022/04/27 05:09:32;;;;;;;17.47;14.47;;;7.00;99.90;;;;;;5051327;28;20969;-48
2022/04/27 05:11:59;;;;;;;17.60;15.43;;;7.00;99.90;;;;;;5051499;28;20515;-49
2022/04/27 05:14:27;;;;;;;19.03;12.70;;;6.90;99.90;;;;;;5053975;28;20499;-48
2022/04/27 05:16:54;;;;;;;16.37;12.90;;;6.70;99.90;;;;;;5051776;28;20790;-48
2022/04/27 05:19:22;;;;;;;17.13;13.73;;;6.70;99.90;;;;;;5050572;28;20503;-48
2022/04/27 05:21:49;;;;;;;13.43;11.57;;;6.70;99.90;;;;;;5050530;28;20450;-48
2022/04/27 05:24:17;;;;;;;8.17;6.83;;;6.80;99.90;;;;;;5050660;28;20464;-48
2022/04/27 05:26:44;;;;;;;121.97;94.60;;;6.90;99.90;;;;;;5050524;28;20481;-48
2022/04/27 05:31:57;;;;;;;12.20;10.90;;;7.10;99.90;;;;;;5051357;28;20433;-49
2022/04/27 05:34:26;;;;;;;12.43;11.10;;;7.20;99.90;;;;;;5051345;28;20449;-48
2022/04/27 05:36:53;;;;;;;13.43;10.33;;;7.40;99.90;;;;;;5051547;28;20497;-48
2022/04/27 05:39:21;;;;;;;13.43;11.57;;;7.60;99.90;;;;;;5050681;28;20441;-48
2022/04/27 05:41:49;;;;;;;10.40;9.30;;;7.80;99.90;;;;;;5049761;28;20474;-48
2022/04/27 05:44:17;;;;;;;11.10;8.93;;;7.70;99.90;;;;;;5049541;28;20449;-48
2022/04/27 05:46:44;;;;;;;10.03;8.50;;;7.50;99.90;;;;;;5049871;28;20485;-47
2022/04/27 05:49:12;;;;;;;8.30;7.33;;;7.60;99.90;;;;;;5066970;28;20873;-47
2022/04/27 05:51:40;;;;;;;8.60;7.73;;;7.60;99.90;;;;;;5070789;28;20441;-49
2022/04/27 05:54:07;;;;;;;10.00;7.80;;;7.50;99.90;;;;;;5070960;28;20440;-48
2022/04/27 05:56:34;;;;;;;11.53;7.63;;;7.40;99.90;;;;;;5094161;22;20555;-49
2022/04/27 05:59:01;;;;;;;10.67;9.60;;;7.30;99.90;;;;;;5071129;28;20464;-48
2022/04/27 06:01:28;;;;;;;10.83;9.23;;;7.20;99.90;;;;;;5070809;28;20451;-49
2022/04/27 06:03:55;;;;;;;8.97;8.10;;;7.20;99.90;;;;;;5070642;28;20931;-48
2022/04/27 06:06:24;;;;;;;9.27;8.33;;;7.10;99.90;;;;;;5070995;28;20465;-49
2022/04/27 06:08:51;;;;;;;10.80;8.70;;;7.20;99.90;;;;;;5070286;28;20436;-51
2022/04/27 06:11:19;;;;;;;9.43;8.27;;;7.10;99.90;;;;;;5069306;28;20523;-51
2022/04/27 06:13:46;;;;;;;10.47;7.60;;;7.00;99.90;;;;;;5069017;28;20447;-53
2022/04/27 06:16:14;;;;;;;12.50;9.47;;;7.00;99.90;;;;;;5069255;28;20466;-48
2022/04/27 06:18:41;;;;;;;12.93;7.37;;;7.00;99.90;;;;;;5069136;28;21024;-50
2022/04/27 06:21:08;;;;;;;9.57;7.90;;;7.00;99.90;;;;;;5069306;28;20436;-49
2022/04/27 06:23:36;;;;;;;11.17;8.80;;;7.10;99.90;;;;;;5069393;28;20455;-50
2022/04/27 06:26:05;;;;;;;11.60;10.40;;;7.00;99.90;;;;;;5071041;28;20456;-50
2022/04/27 06:28:32;;;;;;;13.03;10.50;;;7.00;99.90;;;;;;5070515;28;20480;-50
2022/04/27 06:30:59;;;;;;;12.77;9.00;;;7.00;99.90;;;;;;5070680;28;20949;-52
2022/04/27 06:33:26;;;;;;;12.13;8.37;;;7.00;99.90;;;;;;5070466;28;20494;-49
2022/04/27 06:35:53;;;;;;;13.03;11.73;;;7.00;99.90;;;;;;5070694;28;20542;-49
2022/04/27 06:38:20;;;;;;;18.70;14.97;;;7.00;99.90;;;;;;5072547;28;20462;-49
2022/04/27 06:40:49;;;;;;;13.13;9.50;;;7.30;99.90;;;;;;5074476;28;20448;-49
2022/04/27 06:43:16;;;;;;;13.60;10.47;;;7.10;99.90;;;;;;5074333;28;20532;-49
2022/04/27 06:45:43;;;;;;;8.50;7.67;;;7.20;99.90;;;;;;5074052;28;20494;-51
2022/04/27 06:48:09;;;;;;;10.20;7.73;;;7.10;99.90;;;;;;5074359;28;20479;-49
2022/04/27 06:50:37;;;;;;;9.90;8.90;;;7.10;99.90;;;;;;5074179;28;20986;-49
2022/04/27 06:53:04;;;;;;;8.30;7.30;;;7.20;99.90;;;;;;5073809;28;20483;-49
2022/04/27 06:55:33;;;;;;;7.07;6.37;;;7.20;99.90;;;;;;5074011;28;20992;-49
2022/04/27 06:58:01;;;;;;;8.20;6.07;;;7.20;99.90;;;;;;5074560;28;20475;-50
2022/04/27 07:00:28;;;;;;;6.53;5.50;;;7.20;99.90;;;;;;5074496;28;20436;-49
2022/04/27 07:02:56;;;;;;;4.77;3.13;;;7.20;99.90;;;;;;5074057;28;20904;-53
2022/04/27 07:05:25;;;;;;;1.93;1.77;;;7.20;99.90;;;;;;5073663;28;20517;-49
2022/04/27 07:07:52;;;;;;;2.77;2.47;;;7.10;99.90;;;;;;5054068;28;20653;-52
2022/04/27 07:10:19;;;;;;;3.07;2.77;;;7.10;99.90;;;;;;5053184;28;20533;-49
2022/04/27 07:12:47;;;;;;;5.43;4.87;;;7.30;99.90;;;;;;5053755;28;20447;-51
2022/04/27 07:15:15;;;;;;;8.23;5.73;;;7.30;99.90;;;;;;5053641;28;20522;-49
2022/04/27 07:17:43;;;;;;;9.80;7.30;;;7.40;99.90;;;;;;5058573;28;20536;-49
2022/04/27 07:20:10;;;;;;;8.33;7.37;;;7.30;99.90;;;;;;5053644;28;20445;-49
2022/04/27 07:22:37;;;;;;;8.80;7.00;;;7.30;99.90;;;;;;5053284;28;20441;-48
2022/04/27 07:25:05;;;;;;;8.63;6.97;;;7.20;99.90;;;;;;5053202;28;20996;-50
2022/04/27 07:27:32;;;;;;;6.60;5.90;;;7.20;99.90;;;;;;5052047;28;20509;-50
2022/04/27 07:29:59;;;;;;;4.67;3.97;;;7.10;99.90;;;;;;5052372;28;20502;-50
2022/04/27 07:32:28;;;;;;;5.90;5.03;;;7.10;99.90;;;;;;5051627;28;20457;-51
2022/04/27 07:34:54;;;;;;;4.30;3.90;;;7.10;99.90;;;;;;5052061;28;20718;-48
2022/04/27 07:37:21;;;;;;;5.63;4.40;;;7.10;99.90;;;;;;5052054;28;20544;-52
2022/04/27 07:39:48;;;;;;;4.77;3.03;;;7.10;99.90;;;;;;5051763;28;21004;-48
2022/04/27 07:42:16;;;;;;;5.27;3.67;;;6.90;99.90;;;;;;5053268;28;20480;-48
2022/04/27 07:44:43;;;;;;;6.43;5.00;;;7.00;99.90;;;;;;5053254;28;20446;-49
2022/04/27 07:47:13;;;;;;;7.20;4.73;;;7.00;99.90;;;;;;5053329;28;20460;-50
2022/04/27 07:49:41;;;;;;;4.30;3.90;;;7.00;99.90;;;;;;5052705;28;20845;-48
2022/04/27 07:52:08;;;;;;;5.10;4.27;;;7.10;99.90;;;;;;5051986;28;20814;-48
2022/04/27 07:54:35;;;;;;;6.87;4.20;;;7.10;99.90;;;;;;5051467;28;20938;-49
2022/04/27 07:57:02;;;;;;;5.37;4.87;;;7.10;99.90;;;;;;5051826;28;20498;-49
2022/04/27 07:59:29;;;;;;;5.50;5.00;;;7.00;99.90;;;;;;5051509;28;20446;-50
2022/04/27 08:01:56;;;;;;;6.60;5.30;;;7.30;99.90;;;;;;5051689;28;20463;-49
2022/04/27 08:04:23;;;;;;;4.20;3.80;;;7.70;99.90;;;;;;5051326;28;20476;-50
2022/04/27 08:06:52;;;;;;;4.83;4.20;;;7.80;99.90;;;;;;5052118;28;21021;-49
2022/04/27 08:09:18;;;;;;;5.30;4.80;;;7.80;99.90;;;;;;5052557;28;20855;-49
2022/04/27 08:11:45;;;;;;;5.87;4.93;;;7.80;99.90;;;;;;5052593;28;20478;-52
2022/04/27 08:14:12;;;;;;;4.97;4.47;;;8.10;99.90;;;;;;5052456;28;20578;-48
2022/04/27 08:16:40;;;;;;;5.97;4.20;;;8.50;99.90;;;;;;5052284;28;20548;-48
2022/04/27 08:19:07;;;;;;;2.93;2.73;;;8.80;99.90;;;;;;5052270;28;20498;-50
2022/04/27 08:21:34;;;;;;;2.60;2.40;;;8.60;99.90;;;;;;5052399;28;20922;-49
2022/04/27 08:24:06;;;;;;;3.97;3.57;;;8.80;99.90;;;;;;5052411;28;20441;-49
2022/04/27 08:26:33;;;;;;;4.20;3.20;;;8.70;99.90;;;;;;5050985;28;20942;-51
2022/04/27 08:29:00;;;;;;;3.03;2.73;;;8.70;99.90;;;;;;5050680;28;20577;-49
2022/04/27 08:31:27;;;;;;;3.23;2.73;;;8.60;99.90;;;;;;5050896;28;20819;-51
2022/04/27 08:33:54;;;;;;;2.87;2.57;;;8.20;99.90;;;;;;5050623;28;20441;-48
2022/04/27 08:36:21;;;;;;;2.83;2.63;;;8.20;99.90;;;;;;5050589;28;20542;-51
2022/04/27 08:38:48;;;;;;;5.03;2.87;;;8.40;99.90;;;;;;5051081;28;20445;-49
2022/04/27 08:41:16;;;;;;;2.73;2.33;;;8.80;99.90;;;;;;5051835;28;20491;-47
2022/04/27 08:43:43;;;;;;;2.67;2.47;;;9.00;99.90;;;;;;5051229;28;20445;-48
2022/04/27 08:46:13;;;;;;;6.40;4.23;;;9.00;99.90;;;;;;5050460;28;20492;-50
2022/04/27 08:48:40;;;;;;;6.60;4.53;;;9.10;99.90;;;;;;5050353;28;20501;-51
2022/04/27 08:51:08;;;;;;;3.10;2.77;;;9.20;99.90;;;;;;5050438;28;20926;-48
2022/04/27 08:53:35;;;;;;;3.33;3.03;;;9.30;99.90;;;;;;5050815;28;20495;-49
2022/04/27 08:56:02;;;;;;;4.37;3.97;;;9.70;99.90;;;;;;5050434;28;20501;-49
2022/04/27 08:58:30;;;;;;;4.60;3.60;;;9.70;99.90;;;;;;5050676;28;20525;-47
2022/04/27 09:00:59;;;;;;;4.17;3.53;;;9.70;99.90;;;;;;5050625;28;20867;-48
2022/04/27 09:03:31;;;;;;;4.77;3.70;;;9.80;99.90;;;;;;5051565;28;20449;-50
2022/04/27 09:05:59;;;;;;;4.00;3.60;;;10.10;99.90;;;;;;5052152;28;20467;-48
2022/04/27 09:08:36;;;;;;;3.80;3.17;;;10.50;99.90;;;;;;5051686;28;20564;-48
2022/04/27 09:11:14;;;;;;;6.30;3.77;;;10.80;99.90;;;;;;5051563;28;20504;-48
2022/04/27 09:13:48;;;;;;;3.27;2.80;;;11.20;99.90;;;;;;5051169;28;20500;-48
2022/04/27 09:16:15;;;;;;;4.60;4.10;;;11.00;99.90;;;;;;5050579;28;20523;-50
2022/04/27 09:21:56;;;;;;;4.77;3.80;;;11.10;99.90;;;;;;5054164;28;20898;-49
2022/04/27 09:24:23;;;;;;;3.57;3.27;;;10.90;99.90;;;;;;5049798;28;20448;-51
2022/04/27 09:27:03;;;;;;;5.37;3.83;;;10.60;99.90;;;;;;5048713;28;20984;-49
2022/04/27 09:29:32;;;;;;;3.87;3.33;;;10.20;99.90;;;;;;5049684;28;21019;-52
2022/04/27 09:32:00;;;;;;;108.93;85.97;;;10.00;99.90;;;;;;5050269;28;20441;-48
2022/04/27 09:34:29;;;;;;;6.50;4.53;;;9.90;99.90;;;;;;5050914;28;20444;-46
2022/04/27 09:37:00;;;;;;;5.37;4.83;;;10.20;99.90;;;;;;5051130;28;20461;-49
2022/04/27 09:39:27;;;;;;;4.93;4.43;;;10.60;99.90;;;;;;5050234;28;20469;-47
2022/04/27 09:42:03;;;;;;;4.27;3.87;;;10.90;99.90;;;;;;5050950;28;20480;-48
2022/04/27 09:44:32;;;;;;;4.17;3.77;;;11.10;99.90;;;;;;5049506;28;20941;-47
2022/04/27 09:47:00;;;;;;;4.50;4.10;;;11.30;99.90;;;;;;5051816;28;20493;-51
2022/04/27 09:49:28;;;;;;;3.10;2.80;;;11.50;99.90;;;;;;5069838;28;20512;-48
2022/04/27 09:51:56;;;;;;;5.23;3.67;;;11.30;99.90;;;;;;5069823;28;20502;-47
2022/04/27 09:54:24;;;;;;;3.40;3.07;;;11.30;99.90;;;;;;5069745;28;20513;-48
2022/04/27 09:56:54;;;;;;;4.57;4.00;;;11.20;99.90;;;;;;5069492;28;20587;-48
2022/04/27 09:59:26;;;;;;;3.53;3.10;;;11.00;99.90;;;;;;5070917;28;20443;-47
2022/04/27 10:01:57;;;;;;;3.27;2.87;;;10.80;99.90;;;;;;5071138;28;20467;-49
2022/04/27 10:04:28;;;;;;;3.80;3.10;;;10.70;99.90;;;;;;5070473;28;20535;-49
2022/04/27 10:06:58;;;;;;;4.20;3.70;;;11.00;99.90;;;;;;5069462;28;20976;-49
2022/04/27 10:09:27;;;;;;;4.13;3.70;;;11.30;99.90;;;;;;5069382;28;20855;-47
2022/04/27 10:11:55;;;;;;;4.53;4.13;;;11.50;99.90;;;;;;5070405;28;20487;-48
2022/04/27 10:14:22;;;;;;;4.00;3.60;;;12.00;99.90;;;;;;5073603;28;20448;-48
2022/04/27 10:16:50;;;;;;;3.00;2.70;;;12.30;99.90;;;;;;5073025;28;20475;-50
2022/04/27 10:19:19;;;;;;;4.10;3.30;;;12.40;99.90;;;;;;5073942;28;20474;-47
2022/04/27 10:21:57;;;;;;;3.70;3.23;;;12.70;99.90;;;;;;5075154;28;20443;-47
2022/04/27 10:24:52;;;;;;;4.80;3.57;;;12.80;99.90;;;;;;5074742;28;20444;-48
2022/04/27 10:27:20;;;;;;;3.93;3.23;;;12.70;99.90;;;;;;5074640;28;20813;-47
2022/04/27 10:29:51;;;;;;;8.40;4.27;;;12.40;99.90;;;;;;5074334;28;21000;-47
2022/04/27 10:32:43;;;;;;;4.20;3.80;;;12.10;99.90;;;;;;5073743;28;20440;-44
2022/04/27 10:35:25;;;;;;;3.70;3.10;;;12.10;99.90;;;;;;5055391;28;20455;-48
2022/04/27 10:37:54;;;;;;;3.93;3.43;;;12.20;99.90;;;;;;5073659;28;20444;-48
2022/04/27 10:40:31;;;;;;;4.40;4.00;;;12.40;99.90;;;;;;5054356;28;20491;-48
2022/04/27 10:43:10;;;;;;;4.23;3.83;;;12.70;99.90;;;;;;5054273;28;20479;-46
2022/04/27 10:45:39;;;;;;;4.30;3.57;;;13.10;99.90;;;;;;5054275;28;20471;-47
2022/04/27 10:48:07;;;;;;;8.50;4.77;;;13.30;99.90;;;;;;5054412;28;20441;-47
2022/04/27 10:50:37;;;;;;;5.07;3.63;;;13.60;99.90;;;;;;5054297;28;20484;-46
2022/04/27 10:53:18;;;;;;;6.37;5.13;;;13.90;99.90;;;;;;5053927;28;20518;-46
2022/04/27 10:55:48;;;;;;;5.43;3.80;;;14.30;99.90;;;;;;5054270;28;20538;-43
2022/04/27 10:58:24;;;;;;;4.20;3.80;;;14.10;99.90;;;;;;5053803;28;20491;-47
2022/04/27 11:01:20;;;;;;;3.60;3.10;;;14.10;99.90;;;;;;5052725;28;20858;-47
2022/04/27 11:03:59;;;;;;;3.03;2.73;;;13.60;99.90;;;;;;5052312;28;20449;-47
2022/04/27 11:06:27;;;;;;;2.90;2.60;;;13.50;99.90;;;;;;5052694;28;20503;-47
2022/04/27 11:09:13;;;;;;;3.40;2.73;;;13.20;99.90;;;;;;5052538;28;20485;-46
2022/04/27 11:11:52;;;;;;;3.40;3.10;;;13.00;99.90;;;;;;5051662;28;20888;-47
2022/04/27 11:14:21;;;;;;;3.40;3.10;;;12.90;99.90;;;;;;5053244;28;20441;-50
2022/04/27 11:16:50;;;;;;;3.87;3.37;;;12.80;99.90;;;;;;5053724;28;20461;-46
2022/04/27 11:19:17;;;;;;;4.90;3.87;;;12.80;99.90;;;;;;5053653;28;20491;-44
2022/04/27 11:21:48;;;;;;;4.87;3.50;;;12.70;99.90;;;;;;5053369;28;20479;-46
2022/04/27 11:24:15;;;;;;;6.53;4.67;;;12.80;99.90;;;;;;5051378;28;20444;-46
2022/04/27 11:26:44;;;;;;;3.73;3.20;;;12.90;99.90;;;;;;5052275;28;20473;-47
2022/04/27 11:29:12;;;;;;;6.60;4.33;;;12.90;99.90;;;;;;5051799;28;20479;-46
2022/04/27 11:31:39;;;;;;;4.60;4.13;;;12.70;99.90;;;;;;5051478;28;20437;-45
2022/04/27 11:34:24;;;;;;;4.73;4.30;;;12.80;99.90;;;;;;5052201;28;20445;-48
2022/04/27 11:36:53;;;;;;;4.70;4.23;;;12.70;99.90;;;;;;5052041;28;20484;-47
2022/04/27 11:39:21;;;;;;;3.67;3.23;;;12.60;99.90;;;;;;5053370;28;20537;-46
2022/04/27 11:41:57;;;;;;;3.90;3.50;;;12.60;99.90;;;;;;5053120;28;20922;-45
2022/04/27 11:44:25;;;;;;;7.33;4.40;;;12.50;99.90;;;;;;5052827;28;20440;-46
2022/04/27 11:46:52;;;;;;;3.17;2.87;;;12.70;99.90;;;;;;5053208;28;20465;-46
2022/04/27 11:49:18;;;;;;;5.60;3.33;;;12.70;99.90;;;;;;5052905;28;20485;-45
2022/04/27 11:51:47;;;;;;;5.90;3.77;;;12.70;99.90;;;;;;5053004;28;20498;-48
2022/04/27 11:54:26;;;;;;;3.73;3.17;;;12.90;99.90;;;;;;5057926;28;20444;-48
2022/04/27 11:56:59;;;;;;;4.20;3.37;;;13.00;99.90;;;;;;5138659;22;20488;-48
2022/04/27 11:59:27;;;;;;;5.80;3.10;;;12.90;99.90;;;;;;5092917;28;20432;-48
2022/04/27 12:01:54;;;;;;;3.60;2.73;;;13.00;99.90;;;;;;5093351;28;20443;-49
2022/04/27 12:04:21;;;;;;;2.87;2.37;;;13.20;99.90;;;;;;5093015;28;20496;-48
2022/04/27 12:06:48;;;;;;;2.40;2.20;;;13.40;99.90;;;;;;5093110;28;20547;-48
2022/04/27 12:09:18;;;;;;;6.37;2.70;;;13.40;99.90;;;;;;5092832;28;20558;-49
2022/04/27 12:11:47;;;;;;;10.37;3.63;;;13.60;99.90;;;;;;5092957;28;20470;-48
2022/04/27 12:14:18;;;;;;;8.30;4.60;;;13.60;99.90;;;;;;5092615;28;20872;-47
2022/04/27 12:16:45;;;;;;;7.63;3.63;;;13.60;99.90;;;;;;5092703;28;20554;-49
2022/04/27 12:19:13;;;;;;;3.80;3.00;;;13.80;99.90;;;;;;5092764;28;20462;-48
2022/04/27 12:21:40;;;;;;;3.40;2.97;;;13.60;99.90;;;;;;5092816;28;20970;-49
2022/04/27 12:24:19;;;;;;;3.87;3.57;;;13.60;99.90;;;;;;5092405;28;20464;-48
2022/04/27 12:26:47;;;;;;;3.30;3.00;;;13.60;99.90;;;;;;5092612;28;20455;-48
2022/04/27 12:29:15;;;;;;;200.27;183.27;;;13.70;99.90;;;;;;5091408;28;20570;-51
2022/04/27 12:31:43;;;;;;;11.80;10.30;;;13.60;99.90;;;;;;5090772;28;20477;-53
2022/04/27 12:39:39;;;;;;;2.57;2.10;;;13.80;99.90;;;;;;5091001;28;20423;-48
2022/04/27 12:42:09;;;;;;;3.47;3.10;;;13.90;99.90;;;;;;5090681;28;20440;-52
2022/04/27 12:44:40;;;;;;;3.17;2.87;;;13.80;99.90;;;;;;5091860;28;20439;-48
2022/04/27 12:47:08;;;;;;;2.87;2.67;;;13.70;99.90;;;;;;5092056;28;20456;-49
2022/04/27 12:49:37;;;;;;;3.60;2.93;;;13.80;99.90;;;;;;5092342;28;20515;-48
2022/04/27 12:52:16;;;;;;;2.20;2.00;;;13.80;99.90;;;;;;5091523;28;20504;-51
2022/04/27 12:54:43;;;;;;;2.57;2.37;;;13.60;99.90;;;;;;5090498;28;20439;-49
2022/04/27 12:57:12;;;;;;;2.60;2.40;;;13.70;99.90;;;;;;5090409;28;21006;-48
2022/04/27 12:59:55;;;;;;;2.33;2.10;;;13.80;99.90;;;;;;5091050;28;20468;-48
2022/04/27 13:02:22;;;;;;;2.40;1.97;;;13.60;99.90;;;;;;5090195;28;20527;-51
2022/04/27 13:04:49;;;;;;;2.30;1.83;;;13.70;99.90;;;;;;5090474;28;20937;-48
2022/04/27 13:07:16;;;;;;;2.63;2.43;;;13.70;99.90;;;;;;5091295;28;20495;-51
2022/04/27 13:12:31;;;;;;;2.83;2.50;;;13.70;99.90;;;;;;5091523;28;20461;-48
2022/04/27 13:14:58;;;;;;;2.00;1.90;;;13.60;99.90;;;;;;5091607;28;20448;-48